createdAt,value
2018-09-30T00:00:33.252Z,78.78
2018-09-30T00:03:06.444Z,78.97
2018-09-30T00:03:40.033Z,78.88
2018-09-30T00:05:03.807Z,79.25
2018-09-30T00:07:05.763Z,79.54
2018-09-30T00:08:30.346Z,79.35
2018-09-30T00:09:34.658Z,79.83
2018-09-30T00:10:41.330Z,79.92
2018-09-30T00:11:51.171Z,80.11
2018-09-30T00:12:39.191Z,80.21
2018-09-30T00:14:33.987Z,80.02
2018-09-30T00:16:11.270Z,80.87
2018-09-30T00:17:32.887Z,80.58
2018-09-30T00:18:37.298Z,80.58
2018-09-30T00:19:28.008Z,80.87
2018-09-30T00:20:30.975Z,80.58
2018-09-30T00:22:04.872Z,80.68
2018-09-30T00:22:50.854Z,80.87
2018-09-30T00:24:16.565Z,80.49
2018-09-30T00:24:50.664Z,80.77
2018-09-30T00:26:09.625Z,80.58
2018-09-30T00:27:10.554Z,80.49
2018-09-30T00:28:13.322Z,80.21
2018-09-30T00:29:24.389Z,80.30
2018-09-30T00:30:43.141Z,80.21
2018-09-30T00:32:35.271Z,79.92
2018-09-30T00:34:50.650Z,80.02
2018-09-30T00:36:07.558Z,79.92
2018-09-30T00:36:59.786Z,79.92
2018-09-30T00:38:06.751Z,79.54
2018-09-30T00:39:15.978Z,80.02
2018-09-30T00:40:12.607Z,79.16
2018-09-30T00:41:27.367Z,79.16
2018-09-30T00:42:28.507Z,79.35
2018-09-30T00:43:32.296Z,79.92
2018-09-30T00:44:56.265Z,79.54
2018-09-30T00:45:37.330Z,80.40
2018-09-30T00:46:38.361Z,80.02
2018-09-30T00:47:40.119Z,80.11
2018-09-30T00:49:20.979Z,80.21
2018-09-30T00:50:15.969Z,80.02
2018-09-30T00:52:23.874Z,80.02
2018-09-30T00:53:03.815Z,79.83
2018-09-30T00:54:19.899Z,79.83
2018-09-30T00:55:28.719Z,80.11
2018-09-30T00:57:02.514Z,79.35
2018-09-30T00:57:42.484Z,79.06
2018-09-30T00:58:41.335Z,79.25
2018-09-30T01:00:19.336Z,79.25
2018-09-30T01:01:00.612Z,79.35
2018-09-30T01:02:35.532Z,79.25
2018-09-30T01:03:06.051Z,79.35
2018-09-30T01:04:27.174Z,79.54
2018-09-30T01:05:26.959Z,79.44
2018-09-30T01:06:31.885Z,79.06
2018-09-30T01:09:43.279Z,78.59
2018-09-30T01:11:01.065Z,78.97
2018-09-30T01:12:04.596Z,79.73
2018-09-30T01:13:10.445Z,79.54
2018-09-30T01:14:10.350Z,80.02
2018-09-30T01:15:11.278Z,79.63
2018-09-30T01:16:17.331Z,79.83
2018-09-30T01:17:14.067Z,79.92
2018-09-30T01:18:23.087Z,80.21
2018-09-30T01:20:46.037Z,80.16
2018-09-30T01:23:09.812Z,80.16
2018-09-30T01:25:08.711Z,79.79
2018-09-30T01:26:19.671Z,79.97
2018-09-30T01:27:33.708Z,79.88
2018-09-30T01:28:18.469Z,80.45
2018-09-30T01:29:22.362Z,80.64
2018-09-30T01:32:42.156Z,80.35
2018-09-30T01:33:42.056Z,80.35
2018-09-30T01:34:47.080Z,80.93
2018-09-30T01:37:16.807Z,80.74
2018-09-30T01:38:26.742Z,80.74
2018-09-30T01:39:23.679Z,80.93
2018-09-30T01:40:03.615Z,81.12
2018-09-30T01:41:19.496Z,81.40
2018-09-30T01:42:31.484Z,81.02
2018-09-30T01:44:45.430Z,81.40
2018-09-30T01:45:52.197Z,81.40
2018-09-30T01:46:49.138Z,81.49
2018-09-30T01:47:55.083Z,81.97
2018-09-30T01:49:04.002Z,81.40
2018-09-30T01:51:10.163Z,81.49
2018-09-30T01:52:17.753Z,81.40
2018-09-30T01:53:18.683Z,82.16
2018-09-30T01:54:24.630Z,81.97
2018-09-30T01:55:19.827Z,81.49
2018-09-30T01:56:32.838Z,81.30
2018-09-30T01:57:38.584Z,81.30
2018-09-30T01:58:49.347Z,81.40
2018-09-30T01:59:52.528Z,81.02
2018-09-30T02:00:55.198Z,81.40
2018-09-30T02:01:59.199Z,81.21
2018-09-30T02:03:09.049Z,81.30
2018-09-30T02:04:11.913Z,81.30
2018-09-30T02:05:24.826Z,81.49
2018-09-30T02:06:34.255Z,81.59
2018-09-30T02:07:25.970Z,81.30
2018-09-30T02:08:31.918Z,81.40
2018-09-30T02:09:39.507Z,81.30
2018-09-30T02:10:52.626Z,81.26
2018-09-30T02:11:56.730Z,81.45
2018-09-30T02:12:52.642Z,82.21
2018-09-30T02:13:59.306Z,81.74
2018-09-30T02:15:01.567Z,81.74
2018-09-30T02:16:08.129Z,82.40
2018-09-30T02:17:18.487Z,81.84
2018-09-30T02:18:20.135Z,81.74
2018-09-30T02:19:31.915Z,81.84
2018-09-30T02:20:37.045Z,82.50
2018-09-30T02:21:34.902Z,82.21
2018-09-30T02:22:42.386Z,82.03
2018-09-30T02:23:48.648Z,82.12
2018-09-30T02:25:03.500Z,81.93
2018-09-30T02:26:06.479Z,82.03
2018-09-30T02:27:05.268Z,81.93
2018-09-30T02:28:18.684Z,81.93
2018-09-30T02:29:22.584Z,81.93
2018-09-30T02:30:33.039Z,81.74
2018-09-30T02:31:31.316Z,82.40
2018-09-30T02:32:37.976Z,82.59
2018-09-30T02:33:41.872Z,83.16
2018-09-30T02:34:44.645Z,83.07
2018-09-30T02:35:53.867Z,83.54
2018-09-30T02:36:46.605Z,83.36
2018-09-30T02:37:58.391Z,83.54
2018-09-30T02:39:06.488Z,83.83
2018-09-30T02:40:16.326Z,83.92
2018-09-30T02:41:27.293Z,84.21
2018-09-30T02:42:26.275Z,84.11
2018-09-30T02:43:30.076Z,84.40
2018-09-30T02:44:37.765Z,84.87
2018-09-30T02:46:47.916Z,84.30
2018-09-30T02:47:50.895Z,84.40
2018-09-30T02:48:57.661Z,84.30
2018-09-30T02:50:00.542Z,84.21
2018-09-30T02:51:10.685Z,84.49
2018-09-30T02:52:08.646Z,83.92
2018-09-30T02:53:17.362Z,84.11
2018-09-30T02:54:26.690Z,84.11
2018-09-30T02:55:34.073Z,83.36
2018-09-30T02:56:31.626Z,83.16
2018-09-30T02:57:35.421Z,83.20
2018-09-30T02:59:52.338Z,83.26
2018-09-30T03:01:01.763Z,82.92
2018-09-30T03:02:02.695Z,83.36
2018-09-30T03:03:02.907Z,82.82
2018-09-30T03:04:24.526Z,82.16
2018-09-30T03:06:31.405Z,81.97
2018-09-30T03:07:36.732Z,81.87
2018-09-30T03:08:35.513Z,81.87
2018-09-30T03:10:46.224Z,81.21
2018-09-30T03:11:55.099Z,81.17
2018-09-30T03:13:02.893Z,81.07
2018-09-30T03:14:09.555Z,81.40
2018-09-30T03:15:06.797Z,81.30
2018-09-30T03:16:12.747Z,81.12
2018-09-30T03:17:22.685Z,81.30
2018-09-30T03:19:42.569Z,81.40
2018-09-30T03:20:42.374Z,81.30
2018-09-30T03:21:31.435Z,81.02
2018-09-30T03:22:48.744Z,81.36
2018-09-30T03:23:48.140Z,81.07
2018-09-30T03:24:56.136Z,81.36
2018-09-30T03:26:01.468Z,81.36
2018-09-30T03:27:08.143Z,81.36
2018-09-30T03:28:10.906Z,81.84
2018-09-30T03:29:28.738Z,81.07
2018-09-30T03:30:31.711Z,81.17
2018-09-30T03:31:31.922Z,81.07
2018-09-30T03:32:37.974Z,81.17
2018-09-30T03:33:46.377Z,80.88
2018-09-30T03:37:00.537Z,81.36
2018-09-30T03:38:00.237Z,80.98
2018-09-30T03:39:04.445Z,81.45
2018-09-30T03:40:09.061Z,81.93
2018-09-30T03:42:19.935Z,81.84
2018-09-30T03:44:32.650Z,81.93
2018-09-30T03:45:46.993Z,82.21
2018-09-30T03:46:41.781Z,82.40
2018-09-30T03:47:49.573Z,82.12
2018-09-30T03:49:59.421Z,82.21
2018-09-30T03:51:08.542Z,82.31
2018-09-30T03:52:10.199Z,82.21
2018-09-30T03:53:27.399Z,81.74
2018-09-30T03:54:27.100Z,81.84
2018-09-30T03:55:27.006Z,82.03
2018-09-30T03:56:34.518Z,82.31
2018-09-30T03:57:38.288Z,82.50
2018-09-30T03:58:43.932Z,82.50
2018-09-30T03:59:51.927Z,82.31
2018-09-30T04:01:01.767Z,82.31
2018-09-30T04:01:59.732Z,82.40
2018-09-30T04:03:10.795Z,81.74
2018-09-30T04:04:10.291Z,81.84
2018-09-30T04:05:17.362Z,81.93
2018-09-30T04:06:26.485Z,82.12
2018-09-30T04:07:36.943Z,81.84
2018-09-30T04:08:40.940Z,81.93
2018-09-30T04:09:46.853Z,81.84
2018-09-30T04:10:45.978Z,81.07
2018-09-30T04:11:54.484Z,81.26
2018-09-30T04:14:01.571Z,80.60
2018-09-30T04:15:13.259Z,81.07
2018-09-30T04:16:20.638Z,80.79
2018-09-30T04:18:24.338Z,80.98
2018-09-30T04:19:32.230Z,81.26
2018-09-30T04:20:32.547Z,80.98
2018-09-30T04:21:47.301Z,80.69
2018-09-30T04:22:41.986Z,80.60
2018-09-30T04:23:51.517Z,80.51
2018-09-30T04:24:58.491Z,80.03
2018-09-30T04:26:03.011Z,80.51
2018-09-30T04:27:13.355Z,80.60
2018-09-30T04:28:12.544Z,81.07
2018-09-30T04:29:23.302Z,81.07
2018-09-30T04:31:30.590Z,80.79
2018-09-30T04:32:35.104Z,81.17
2018-09-30T04:33:50.987Z,81.17
2018-09-30T04:34:46.490Z,81.26
2018-09-30T04:35:48.341Z,81.26
2018-09-30T04:37:00.842Z,81.45
2018-09-30T04:37:56.959Z,81.23
2018-09-30T04:40:21.967Z,81.51
2018-09-30T04:41:23.612Z,81.13
2018-09-30T04:42:25.669Z,81.88
2018-09-30T04:43:42.368Z,81.98
2018-09-30T04:44:46.166Z,81.98
2018-09-30T04:46:47.923Z,82.36
2018-09-30T04:47:52.846Z,82.08
2018-09-30T04:49:02.071Z,82.36
2018-09-30T04:50:09.112Z,81.79
2018-09-30T04:51:08.127Z,82.36
2018-09-30T04:52:12.643Z,81.79
2018-09-30T04:53:25.043Z,81.98
2018-09-30T04:55:32.330Z,82.55
2018-09-30T04:56:34.799Z,82.55
2018-09-30T04:57:45.563Z,83.22
2018-09-30T04:59:49.367Z,82.84
2018-09-30T05:01:03.300Z,82.84
2018-09-30T05:02:04.957Z,82.84
2018-09-30T05:03:09.773Z,82.08
2018-09-30T05:04:13.981Z,82.08
2018-09-30T05:05:18.903Z,81.79
2018-09-30T05:06:31.918Z,81.88
2018-09-30T05:07:32.745Z,81.98
2018-09-30T05:08:51.799Z,82.08
2018-09-30T05:09:41.464Z,81.04
2018-09-30T05:10:51.921Z,81.51
2018-09-30T05:11:55.308Z,81.41
2018-09-30T05:13:06.377Z,81.04
2018-09-30T05:15:13.665Z,81.98
2018-09-30T05:16:14.839Z,81.70
2018-09-30T05:17:22.797Z,82.08
2018-09-30T05:19:38.173Z,81.88
2018-09-30T05:20:43.512Z,81.79
2018-09-30T05:21:42.495Z,82.27
2018-09-30T05:22:50.695Z,81.98
2018-09-30T05:23:47.632Z,81.79
2018-09-30T05:24:57.375Z,82.08
2018-09-30T05:28:20.539Z,81.98
2018-09-30T05:30:28.748Z,81.88
2018-09-30T05:31:31.934Z,82.08
2018-09-30T05:32:39.212Z,81.70
2018-09-30T05:33:38.507Z,81.88
2018-09-30T05:34:45.577Z,82.17
2018-09-30T05:35:59.408Z,81.41
2018-09-30T05:38:18.270Z,81.04
2018-09-30T05:39:11.725Z,81.13
2018-09-30T05:40:16.752Z,81.41
2018-09-30T05:42:30.425Z,81.04
2018-09-30T05:43:35.622Z,81.23
2018-09-30T05:44:43.620Z,81.13
2018-09-30T05:45:51.004Z,81.41
2018-09-30T05:46:55.620Z,81.79
2018-09-30T05:47:59.213Z,81.51
2018-09-30T05:49:03.441Z,81.88
2018-09-30T05:50:16.236Z,82.08
2018-09-30T05:51:16.146Z,81.98
2018-09-30T05:52:14.001Z,81.98
2018-09-30T05:53:30.393Z,81.79
2018-09-30T05:56:39.842Z,81.79
2018-09-30T05:57:48.765Z,81.98
2018-09-30T05:58:54.810Z,81.70
2018-09-30T06:00:04.857Z,82.17
2018-09-30T06:00:59.438Z,82.17
2018-09-30T06:02:00.163Z,82.36
2018-09-30T06:03:14.920Z,82.74
2018-09-30T06:04:20.051Z,82.74
2018-09-30T06:06:31.128Z,81.70
2018-09-30T06:07:40.456Z,81.98
2018-09-30T06:08:50.952Z,82.65
2018-09-30T06:09:50.918Z,82.65
2018-09-30T06:10:53.691Z,82.93
2018-09-30T06:11:58.514Z,83.12
2018-09-30T06:14:09.816Z,82.93
2018-09-30T06:15:19.856Z,83.12
2018-09-30T06:16:22.308Z,83.22
2018-09-30T06:17:23.957Z,82.84
2018-09-30T06:18:37.483Z,83.03
2018-09-30T06:19:40.152Z,83.12
2018-09-30T06:20:41.407Z,83.22
2018-09-30T06:24:08.290Z,83.12
2018-09-30T06:25:14.520Z,83.78
2018-09-30T06:26:22.502Z,83.78
2018-09-30T06:27:12.371Z,83.78
2018-09-30T06:28:14.734Z,84.07
2018-09-30T06:29:28.466Z,84.26
2018-09-30T06:30:32.366Z,83.97
2018-09-30T06:31:38.251Z,84.07
2018-09-30T06:32:35.455Z,84.26
2018-09-30T06:33:42.631Z,84.36
2018-09-30T06:34:53.911Z,84.49
2018-09-30T06:36:11.531Z,84.40
2018-09-30T06:37:04.516Z,84.30
2018-09-30T06:38:05.507Z,84.11
2018-09-30T06:39:19.238Z,84.59
2018-09-30T06:41:25.504Z,84.30
2018-09-30T06:42:36.983Z,84.11
2018-09-30T06:43:41.494Z,84.01
2018-09-30T06:45:49.911Z,84.87
2018-09-30T06:46:56.680Z,84.68
2018-09-30T06:47:57.715Z,85.16
2018-09-30T06:49:04.481Z,85.35
2018-09-30T06:50:02.544Z,85.16
2018-09-30T06:53:21.719Z,85.35
2018-09-30T06:54:34.016Z,85.16
2018-09-30T06:56:38.026Z,85.25
2018-09-30T06:57:51.054Z,84.97
2018-09-30T07:00:01.606Z,85.11
2018-09-30T07:01:03.459Z,85.11
2018-09-30T07:02:10.531Z,85.11
2018-09-30T07:03:19.249Z,84.72
2018-09-30T07:04:22.635Z,85.11
2018-09-30T07:05:30.118Z,85.49
2018-09-30T07:06:31.564Z,85.11
2018-09-30T07:07:40.590Z,85.49
2018-09-30T07:09:50.235Z,85.39
2018-09-30T07:12:04.068Z,85.68
2018-09-30T07:14:15.974Z,85.05
2018-09-30T07:15:21.709Z,85.24
2018-09-30T07:16:30.736Z,85.15
2018-09-30T07:17:33.504Z,84.77
2018-09-30T07:18:48.260Z,85.15
2018-09-30T07:19:43.046Z,84.67
2018-09-30T07:20:49.096Z,85.72
2018-09-30T07:21:59.037Z,85.43
2018-09-30T07:23:10.833Z,85.53
2018-09-30T07:26:22.526Z,86.05
2018-09-30T07:27:38.621Z,86.05
2018-09-30T07:28:41.597Z,86.14
2018-09-30T07:30:53.387Z,85.66
2018-09-30T07:32:02.306Z,85.95
2018-09-30T07:33:17.265Z,85.28
2018-09-30T07:34:30.183Z,85.38
2018-09-30T07:35:25.169Z,85.19
2018-09-30T07:36:18.008Z,85.38
2018-09-30T07:37:44.644Z,84.52
2018-09-30T07:38:22.126Z,84.66
2018-09-30T07:40:00.838Z,85.14
2018-09-30T07:41:45.814Z,84.76
2018-09-30T07:43:13.571Z,84.95
2018-09-30T07:44:03.646Z,84.47
2018-09-30T07:45:15.632Z,84.56
2018-09-30T07:46:10.827Z,84.28
2018-09-30T07:47:11.873Z,84.66
2018-09-30T07:48:14.023Z,84.47
2018-09-30T07:49:14.540Z,84.95
2018-09-30T07:50:27.963Z,83.81
2018-09-30T07:53:49.192Z,84.47
2018-09-30T07:54:33.642Z,84.23
2018-09-30T07:55:56.268Z,84.04
2018-09-30T07:56:50.848Z,84.13
2018-09-30T07:58:20.677Z,84.23
2018-09-30T07:59:24.559Z,83.47
2018-09-30T08:00:16.893Z,83.09
2018-09-30T08:01:27.180Z,82.99
2018-09-30T08:02:16.799Z,82.32
2018-09-30T08:03:25.622Z,81.66
2018-09-30T08:04:41.288Z,81.56
2018-09-30T08:05:39.762Z,81.28
2018-09-30T08:06:37.826Z,80.55
2018-09-30T08:07:51.967Z,80.94
2018-09-30T08:08:50.642Z,80.55
2018-09-30T08:10:10.212Z,80.46
2018-09-30T08:11:19.128Z,80.36
2018-09-30T08:12:10.533Z,80.27
2018-09-30T08:13:16.184Z,79.99
2018-09-30T08:14:20.177Z,79.51
2018-09-30T08:15:27.868Z,79.22
2018-09-30T08:16:36.876Z,79.46
2018-09-30T08:18:46.942Z,79.27
2018-09-30T08:19:49.617Z,79.17
2018-09-30T08:25:16.486Z,77.83
2018-09-30T08:26:17.926Z,78.16
2018-09-30T08:27:37.291Z,77.87
2018-09-30T08:28:29.416Z,77.78
2018-09-30T08:30:44.437Z,77.20
2018-09-30T08:32:53.005Z,76.25
2018-09-30T08:33:58.949Z,76.16
2018-09-30T08:35:07.768Z,75.96
2018-09-30T08:36:05.930Z,75.96
2018-09-30T08:37:21.404Z,75.62
2018-09-30T08:38:12.411Z,75.72
2018-09-30T08:39:24.302Z,75.53
2018-09-30T08:40:24.814Z,75.43
2018-09-30T08:41:38.850Z,74.38
2018-09-30T08:42:39.905Z,74.19
2018-09-30T08:43:59.531Z,73.81
2018-09-30T08:44:54.957Z,73.62
2018-09-30T08:46:10.427Z,74.04
2018-09-30T08:46:59.590Z,73.56
2018-09-30T08:50:23.673Z,71.94
2018-09-30T08:51:32.796Z,72.13
2018-09-30T08:52:37.721Z,72.32
2018-09-30T08:53:34.964Z,71.41
2018-09-30T08:55:04.670Z,70.92
2018-09-30T08:55:55.413Z,69.87
2018-09-30T08:57:24.763Z,69.68
2018-09-30T08:58:04.592Z,69.59
2018-09-30T08:59:07.264Z,69.59
2018-09-30T09:00:19.971Z,69.31
2018-09-30T09:01:19.467Z,69.82
2018-09-30T09:03:40.172Z,69.24
2018-09-30T09:04:59.430Z,68.96
2018-09-30T09:05:40.599Z,68.96
2018-09-30T09:06:50.335Z,68.38
2018-09-30T09:07:51.979Z,68.76
2018-09-30T09:09:01.209Z,68.48
2018-09-30T09:09:56.571Z,67.18
2018-09-30T09:11:17.922Z,66.79
2018-09-30T09:12:16.285Z,66.41
2018-09-30T09:13:21.209Z,65.74
2018-09-30T09:14:28.701Z,65.55
2018-09-30T09:15:25.876Z,64.98
2018-09-30T09:16:39.873Z,64.12
2018-09-30T09:17:41.011Z,63.93
2018-09-30T09:18:54.743Z,63.39
2018-09-30T09:22:09.417Z,62.81
2018-09-30T09:23:13.210Z,62.90
2018-09-30T09:24:10.760Z,62.90
2018-09-30T09:25:14.158Z,63.29
2018-09-30T09:26:25.424Z,62.52
2018-09-30T09:28:39.216Z,62.14
2018-09-30T09:29:39.278Z,61.28
2018-09-30T09:30:49.626Z,59.66
2018-09-30T09:31:45.880Z,59.49
2018-09-30T09:33:19.213Z,59.49
2018-09-30T09:34:26.832Z,59.40
2018-09-30T09:35:40.974Z,58.54
2018-09-30T09:36:18.044Z,58.44
2018-09-30T09:38:50.628Z,58.44
2018-09-30T09:40:51.158Z,59.33
2018-09-30T09:41:56.082Z,58.47
2018-09-30T09:42:54.552Z,58.28
2018-09-30T09:44:02.860Z,58.18
2018-09-30T09:45:06.960Z,58.37
2018-09-30T09:46:25.505Z,58.09
2018-09-30T09:47:22.747Z,57.42
2018-09-30T09:49:25.723Z,56.46
2018-09-30T09:51:51.572Z,56.94
2018-09-30T09:52:36.246Z,55.79
2018-09-30T09:54:00.222Z,56.27
2018-09-30T09:55:16.986Z,56.10
2018-09-30T09:55:57.848Z,56.01
2018-09-30T09:57:11.585Z,56.20
2018-09-30T09:58:31.657Z,55.91
2018-09-30T10:01:41.309Z,55.91
2018-09-30T10:02:25.139Z,56.01
2018-09-30T10:03:44.296Z,55.82
2018-09-30T10:04:54.235Z,55.85
2018-09-30T10:06:00.293Z,55.53
2018-09-30T10:07:18.637Z,54.50
2018-09-30T10:07:58.679Z,54.22
2018-09-30T10:10:31.964Z,54.89
2018-09-30T10:11:39.139Z,54.79
2018-09-30T10:13:35.573Z,54.41
2018-09-30T10:14:33.652Z,54.50
2018-09-30T10:15:43.375Z,54.70
2018-09-30T10:17:07.860Z,54.60
2018-09-30T10:17:55.686Z,54.32
2018-09-30T10:18:47.502Z,54.91
2018-09-30T10:19:57.230Z,54.05
2018-09-30T10:22:00.532Z,53.86
2018-09-30T10:24:06.687Z,52.71
2018-09-30T10:25:32.812Z,53.00
2018-09-30T10:26:19.511Z,53.28
2018-09-30T10:28:37.857Z,53.09
2018-09-30T10:29:38.685Z,52.62
2018-09-30T10:30:52.722Z,51.65
2018-09-30T10:31:57.548Z,51.95
2018-09-30T10:32:47.628Z,51.85
2018-09-30T10:34:02.683Z,51.46
2018-09-30T10:35:05.570Z,51.40
2018-09-30T10:36:25.438Z,51.59
2018-09-30T10:37:18.784Z,51.97
2018-09-30T10:38:26.349Z,52.26
2018-09-30T10:39:42.736Z,51.78
2018-09-30T10:40:28.654Z,51.78
2018-09-30T10:41:38.798Z,51.59
2018-09-30T10:42:48.733Z,51.04
2018-09-30T10:45:04.828Z,51.14
2018-09-30T10:46:04.732Z,50.56
2018-09-30T10:47:01.266Z,50.84
2018-09-30T10:48:11.940Z,49.79
2018-09-30T10:50:20.129Z,49.91
2018-09-30T10:53:44.732Z,49.43
2018-09-30T10:55:52.840Z,48.18
2018-09-30T10:57:00.835Z,47.22
2018-09-30T10:57:57.480Z,47.41
2018-09-30T10:59:11.298Z,47.71
2018-09-30T11:00:08.856Z,47.61
2018-09-30T11:02:23.104Z,47.41
2018-09-30T11:03:35.743Z,47.89
2018-09-30T11:05:31.422Z,47.82
2018-09-30T11:06:49.046Z,47.15
2018-09-30T11:10:07.343Z,47.34
2018-09-30T11:11:17.239Z,46.86
2018-09-30T11:12:24.107Z,46.86
2018-09-30T11:13:22.989Z,46.86
2018-09-30T11:14:33.663Z,46.28
2018-09-30T11:15:35.604Z,46.28
2018-09-30T11:16:38.482Z,46.38
2018-09-30T11:17:38.808Z,46.00
2018-09-30T11:18:52.628Z,46.09
2018-09-30T11:20:00.213Z,46.79
2018-09-30T11:20:52.753Z,47.27
2018-09-30T11:22:11.291Z,47.46
2018-09-30T11:23:26.456Z,47.46
2018-09-30T11:24:10.852Z,46.41
2018-09-30T11:25:25.769Z,46.89
2018-09-30T11:26:20.848Z,47.27
2018-09-30T11:27:48.917Z,45.92
2018-09-30T11:28:33.463Z,45.76
2018-09-30T11:30:47.610Z,46.33
2018-09-30T11:33:08.415Z,46.23
2018-09-30T11:34:10.575Z,44.79
2018-09-30T11:35:20.212Z,43.74
2018-09-30T11:36:16.942Z,44.79
2018-09-30T11:37:16.541Z,45.28
2018-09-30T11:38:29.761Z,43.74
2018-09-30T11:40:38.998Z,42.58
2018-09-30T11:41:56.206Z,43.08
2018-09-30T11:45:02.173Z,43.18
2018-09-30T11:46:07.920Z,43.76
2018-09-30T11:48:24.832Z,44.62
2018-09-30T11:49:36.204Z,44.05
2018-09-30T11:50:36.730Z,43.95
2018-09-30T11:51:49.435Z,43.57
2018-09-30T11:53:06.756Z,43.76
2018-09-30T11:54:16.999Z,42.99
2018-09-30T11:54:53.251Z,43.11
2018-09-30T11:56:01.349Z,43.68
2018-09-30T11:58:11.299Z,44.07
2018-09-30T12:00:26.680Z,42.07
2018-09-30T12:02:22.868Z,40.91
2018-09-30T12:03:43.099Z,40.55
2018-09-30T12:05:02.353Z,41.05
2018-09-30T12:07:08.414Z,38.56
2018-09-30T12:08:06.884Z,39.37
2018-09-30T12:08:59.622Z,38.71
2018-09-30T12:10:06.699Z,39.22
2018-09-30T12:11:29.338Z,37.30
2018-09-30T12:12:21.258Z,36.65
2018-09-30T12:14:31.525Z,35.66
2018-09-30T12:15:38.904Z,32.70
2018-09-30T12:17:53.362Z,29.66
2018-09-30T12:20:01.464Z,25.84
2018-09-30T12:23:19.307Z,22.50
2018-09-30T12:24:24.439Z,21.45
2018-09-30T12:25:44.237Z,19.62
2018-09-30T12:26:27.014Z,19.83
2018-09-30T12:27:40.641Z,19.36
2018-09-30T12:29:03.084Z,18.70
2018-09-30T12:29:46.120Z,18.02
2018-09-30T12:30:53.171Z,17.45
2018-09-30T12:32:11.915Z,17.07
2018-09-30T12:32:55.026Z,15.30
2018-09-30T12:34:11.829Z,14.73
2018-09-30T12:35:09.282Z,15.42
2018-09-30T12:36:14.101Z,14.84
2018-09-30T12:37:22.198Z,13.96
2018-09-30T12:38:29.478Z,12.49
2018-09-30T12:39:41.372Z,11.40
2018-09-30T12:41:02.267Z,11.11
2018-09-30T12:41:43.431Z,10.13
2018-09-30T12:42:54.909Z,11.52
2018-09-30T12:44:06.087Z,10.93
2018-09-30T12:45:03.330Z,10.83
2018-09-30T12:46:06.000Z,11.13
2018-09-30T12:47:00.372Z,10.33
2018-09-30T12:48:22.510Z,10.63
2018-09-30T12:50:44.226Z,10.25
2018-09-30T12:52:49.158Z,9.17
2018-09-30T12:54:10.876Z,8.58
2018-09-30T12:55:01.975Z,7.89
2018-09-30T12:56:08.945Z,6.89
2018-09-30T12:57:22.677Z,8.00
2018-09-30T12:58:24.740Z,8.59
2018-09-30T12:59:22.400Z,7.10
2018-09-30T13:00:37.042Z,6.11
2018-09-30T13:01:24.262Z,6.92
2018-09-30T13:03:38.613Z,5.52
2018-09-30T13:05:54.354Z,5.12
2018-09-30T13:07:00.239Z,4.62
2018-09-30T13:09:00.768Z,5.33
2018-09-30T13:10:23.304Z,4.93
2018-09-30T13:11:12.049Z,4.93
2018-09-30T13:12:21.689Z,4.73
2018-09-30T13:13:29.074Z,4.94
2018-09-30T13:14:38.497Z,4.33
2018-09-30T13:15:38.504Z,3.74
2018-09-30T13:16:57.972Z,3.63
2018-09-30T13:17:55.738Z,3.23
2018-09-30T13:18:59.117Z,3.64
2018-09-30T13:20:27.729Z,3.54
2018-09-30T13:21:34.875Z,3.64
2018-09-30T13:23:27.003Z,3.24
2018-09-30T13:24:13.698Z,2.94
2018-09-30T13:26:09.721Z,2.84
2018-09-30T13:27:10.756Z,1.72
2018-09-30T13:28:17.628Z,2.33
2018-09-30T13:31:29.335Z,1.42
2018-09-30T13:33:36.345Z,1.72
2018-09-30T13:34:37.237Z,2.13
2018-09-30T13:35:52.606Z,1.01
2018-09-30T13:38:00.714Z,0.81
2018-09-30T13:39:06.159Z,0.71
2018-09-30T13:40:16.139Z,0.91
2018-09-30T13:41:13.733Z,1.01
2018-09-30T13:42:18.840Z,1.81
2018-09-30T13:43:22.588Z,2.21
2018-09-30T13:44:36.100Z,3.31
2018-09-30T13:45:34.272Z,4.10
2018-09-30T13:47:56.819Z,5.57
2018-09-30T13:50:24.373Z,7.32
2018-09-30T13:51:28.480Z,8.59
2018-09-30T13:52:23.163Z,9.86
2018-09-30T13:53:27.779Z,9.05
2018-09-30T13:54:29.429Z,9.53
2018-09-30T13:55:27.800Z,10.89
2018-09-30T13:56:34.664Z,11.18
2018-09-30T13:57:45.529Z,10.97
2018-09-30T13:58:51.585Z,12.12
2018-09-30T13:59:53.024Z,12.40
2018-09-30T14:02:15.991Z,13.75
2018-09-30T14:03:11.690Z,14.81
2018-09-30T14:04:11.390Z,15.09
2018-09-30T14:05:25.431Z,15.28
2018-09-30T14:06:28.830Z,16.05
2018-09-30T14:07:30.887Z,16.61
2018-09-30T14:09:48.761Z,20.09
2018-09-30T14:10:56.517Z,19.79
2018-09-30T14:11:56.927Z,19.10
2018-09-30T14:14:01.654Z,21.31
2018-09-30T14:15:04.635Z,21.69
2018-09-30T14:17:19.602Z,21.86
2018-09-30T14:19:05.996Z,21.67
2018-09-30T14:19:32.109Z,21.66
2018-09-30T14:20:47.990Z,22.42
2018-09-30T14:21:41.245Z,22.70
2018-09-30T14:22:50.773Z,22.89
2018-09-30T14:24:03.684Z,23.65
2018-09-30T14:24:51.308Z,24.23
2018-09-30T14:26:09.026Z,24.22
2018-09-30T14:27:16.661Z,24.13
2018-09-30T14:28:28.400Z,24.80
2018-09-30T14:29:12.533Z,24.21
2018-09-30T14:30:36.516Z,24.79
2018-09-30T14:32:04.471Z,24.97
2018-09-30T14:32:54.957Z,24.87
2018-09-30T14:34:01.979Z,25.92
2018-09-30T14:35:11.053Z,26.21
2018-09-30T14:36:04.611Z,26.69
2018-09-30T14:38:23.167Z,27.17
2018-09-30T14:39:19.282Z,27.26
2018-09-30T14:40:31.483Z,27.74
2018-09-30T14:41:20.633Z,27.93
2018-09-30T14:42:38.256Z,28.03
2018-09-30T14:43:41.235Z,29.28
2018-09-30T14:44:52.508Z,28.69
2018-09-30T14:46:57.647Z,27.92
2018-09-30T14:48:04.748Z,28.02
2018-09-30T14:49:11.693Z,28.00
2018-09-30T14:50:13.855Z,28.86
2018-09-30T14:51:12.131Z,28.96
2018-09-30T14:52:19.713Z,29.54
2018-09-30T14:54:27.165Z,31.56
2018-09-30T14:55:36.329Z,31.74
2018-09-30T14:56:49.254Z,32.31
2018-09-30T14:57:47.815Z,32.70
2018-09-30T15:00:02.316Z,31.64
2018-09-30T15:01:01.265Z,31.16
2018-09-30T15:02:10.174Z,31.54
2018-09-30T15:03:15.714Z,31.54
2018-09-30T15:04:18.493Z,31.35
2018-09-30T15:05:26.598Z,31.83
2018-09-30T15:08:41.576Z,31.53
2018-09-30T15:11:03.195Z,32.30
2018-09-30T15:14:15.615Z,32.68
2018-09-30T15:16:25.464Z,33.07
2018-09-30T15:17:25.684Z,33.07
2018-09-30T15:19:40.854Z,32.68
2018-09-30T15:20:35.431Z,33.07
2018-09-30T15:21:57.253Z,33.07
2018-09-30T15:23:05.657Z,32.67
2018-09-30T15:24:14.781Z,33.15
2018-09-30T15:25:05.781Z,33.24
2018-09-30T15:26:27.904Z,33.34
2018-09-30T15:27:26.488Z,33.05
2018-09-30T15:28:31.907Z,33.24
2018-09-30T15:29:33.814Z,33.72
2018-09-30T15:30:43.508Z,34.39
2018-09-30T15:32:52.028Z,34.68
2018-09-30T15:34:55.422Z,36.22
2018-09-30T15:36:06.600Z,36.32
2018-09-30T15:37:22.585Z,36.51
2018-09-30T15:38:25.046Z,36.41
2018-09-30T15:39:35.091Z,36.70
2018-09-30T15:40:38.998Z,36.22
2018-09-30T15:41:25.586Z,36.03
2018-09-30T15:43:45.365Z,36.20
2018-09-30T15:45:09.232Z,37.55
2018-09-30T15:46:03.714Z,38.22
2018-09-30T15:48:25.751Z,36.40
2018-09-30T15:49:32.824Z,36.30
2018-09-30T15:50:11.941Z,36.20
2018-09-30T15:51:34.891Z,37.35
2018-09-30T15:52:52.413Z,36.78
2018-09-30T15:53:37.470Z,36.40
2018-09-30T15:54:43.418Z,36.40
2018-09-30T15:55:44.759Z,36.20
2018-09-30T15:57:05.553Z,36.01
2018-09-30T15:59:15.813Z,35.82
2018-09-30T16:00:19.824Z,36.01
2018-09-30T16:01:21.670Z,36.11
2018-09-30T16:02:24.444Z,36.40
2018-09-30T16:03:25.069Z,36.78
2018-09-30T16:04:24.254Z,37.26
2018-09-30T16:06:43.832Z,37.55
2018-09-30T16:07:53.374Z,38.12
2018-09-30T16:09:02.197Z,37.82
2018-09-30T16:09:47.953Z,38.22
2018-09-30T16:11:24.009Z,38.87
2018-09-30T16:12:14.297Z,39.16
2018-09-30T16:13:13.452Z,39.73
2018-09-30T16:14:18.209Z,40.02
2018-09-30T16:15:35.519Z,40.31
2018-09-30T16:18:52.228Z,41.08
2018-09-30T16:20:52.550Z,40.89
2018-09-30T16:23:00.971Z,40.41
2018-09-30T16:24:12.141Z,41.08
2018-09-30T16:27:23.537Z,41.37
2018-09-30T16:28:33.584Z,41.27
2018-09-30T16:29:23.149Z,41.27
2018-09-30T16:30:44.763Z,41.94
2018-09-30T16:31:44.178Z,41.35
2018-09-30T16:32:49.704Z,41.35
2018-09-30T16:33:55.646Z,41.46
2018-09-30T16:35:04.579Z,42.04
2018-09-30T16:35:50.859Z,41.35
2018-09-30T16:37:04.787Z,41.56
2018-09-30T16:38:27.024Z,41.85
2018-09-30T16:39:30.008Z,42.33
2018-09-30T16:40:31.026Z,42.04
2018-09-30T16:41:23.222Z,42.21
2018-09-30T16:42:53.058Z,41.83
2018-09-30T16:43:55.115Z,42.23
2018-09-30T16:44:49.901Z,42.04
2018-09-30T16:47:09.169Z,41.83
2018-09-30T16:48:06.925Z,42.21
2018-09-30T16:49:07.343Z,42.60